Time;durP1;ratioP1;P1;durP2;ratioP2;P2;SDS_P1;SDS_P2;PMS_P1;PMS_P2;Temp;Humidity;BMP_temperature;BMP_pressure;BME280_temperature;BME280_humidity;BME280_pressure;Samples;Min_cycle;Max_cycle;Signal;HPM_P1;HPM_P2
2023/10/21 00:00:20;;;;;;;3.30;3.00;;;;;;;11.57;100.00;98227.66;5091615;28;20077;-62
2023/10/21 00:02:45;;;;;;;8.90;4.20;;;;;;;11.48;100.00;98232.16;5091163;28;20567;-62
2023/10/21 00:05:10;;;;;;;8.40;4.03;;;;;;;11.39;100.00;98227.81;5089458;28;20016;-61
2023/10/21 00:07:37;;;;;;;8.90;3.85;;;;;;;11.55;100.00;98232.28;5092327;28;20461;-62
2023/10/21 00:10:06;;;;;;;6.22;3.95;;;;;;;11.48;100.00;98240.13;5091779;28;20036;-62
2023/10/21 00:12:35;;;;;;;5.70;2.90;;;;;;;11.55;100.00;98238.44;5091860;28;20475;-62
2023/10/21 00:15:02;;;;;;;7.18;3.78;;;;;;;11.54;100.00;98235.97;5092156;28;20027;-62
2023/10/21 00:17:28;;;;;;;7.97;4.85;;;;;;;11.49;100.00;98243.63;5073135;28;20052;-62
2023/10/21 00:19:54;;;;;;;3.30;2.90;;;;;;;11.55;100.00;98251.75;5072502;28;20056;-62
2023/10/21 00:22:19;;;;;;;9.35;3.65;;;;;;;11.55;100.00;98250.94;5091639;28;20038;-62
2023/10/21 00:24:45;;;;;;;8.35;2.90;;;;;;;11.57;100.00;98263.09;5089920;28;20123;-62
2023/10/21 00:27:10;;;;;;;5.90;3.20;;;;;;;11.57;100.00;98252.44;5073311;28;20100;-62
2023/10/21 00:29:35;;;;;;;5.05;3.15;;;;;;;11.51;100.00;98250.44;5091633;28;20047;-62
2023/10/21 00:32:04;;;;;;;5.07;3.00;;;;;;;11.58;100.00;98266.56;5089085;28;20398;-62
2023/10/21 00:34:37;;;;;;;9.13;3.42;;;;;;;11.62;100.00;98267.06;5088781;28;20024;-62
2023/10/21 00:37:03;;;;;;;4.70;3.08;;;;;;;11.63;100.00;98277.56;5089994;28;20039;-62
2023/10/21 00:39:34;;;;;;;8.77;3.85;;;;;;;11.60;100.00;98277.88;5077956;28;20023;-62
2023/10/21 00:42:02;;;;;;;5.63;3.58;;;;;;;11.56;100.00;98277.41;5087517;28;20023;-62
2023/10/21 00:44:27;;;;;;;7.75;3.58;;;;;;;11.59;100.00;98278.91;5084655;28;20032;-62
2023/10/21 00:46:54;;;;;;;5.45;3.63;;;;;;;11.59;100.00;98284.22;5072719;28;20275;-62
2023/10/21 00:49:19;;;;;;;3.45;3.15;;;;;;;11.57;100.00;98289.69;5086731;28;20031;-62
2023/10/21 00:51:46;;;;;;;8.60;4.88;;;;;;;11.49;100.00;98287.03;5087560;28;20021;-62
2023/10/21 00:54:12;;;;;;;3.65;3.30;;;;;;;11.56;100.00;98297.88;5062822;28;20085;-62
2023/10/21 00:56:40;;;;;;;5.35;3.20;;;;;;;11.55;100.00;98299.66;5089154;28;20023;-62
2023/10/21 00:59:07;;;;;;;10.10;5.30;;;;;;;11.42;100.00;98310.00;5089753;28;20020;-62
2023/10/21 01:01:34;;;;;;;7.05;3.30;;;;;;;11.51;100.00;98310.84;5090024;28;20383;-62
2023/10/21 01:04:00;;;;;;;7.07;4.00;;;;;;;11.51;100.00;98306.34;5091989;28;20024;-62
2023/10/21 01:06:26;;;;;;;10.63;5.50;;;;;;;11.43;100.00;98314.31;5098230;28;20431;-62
2023/10/21 01:08:52;;;;;;;6.95;5.50;;;;;;;11.40;100.00;98311.97;5079851;28;20032;-62
2023/10/21 01:11:18;;;;;;;7.18;3.30;;;;;;;11.45;100.00;98309.66;5097056;28;20578;-62
2023/10/21 01:13:44;;;;;;;9.25;3.97;;;;;;;11.49;100.00;98323.47;5078937;28;20024;-62
2023/10/21 01:16:09;;;;;;;9.93;4.10;;;;;;;11.45;100.00;98327.47;5079717;28;20039;-62
2023/10/21 01:18:35;;;;;;;11.60;5.07;;;;;;;11.37;100.00;98325.63;5098642;28;20035;-62
2023/10/21 01:21:02;;;;;;;14.38;3.60;;;;;;;11.47;100.00;98330.78;5079342;28;20444;-62
2023/10/21 01:23:28;;;;;;;5.80;3.80;;;;;;;11.46;100.00;98327.28;5098035;28;20028;-62
2023/10/21 01:25:54;;;;;;;7.25;3.78;;;;;;;11.47;100.00;98336.09;5078595;28;20024;-62
2023/10/21 01:28:19;;;;;;;8.55;4.05;;;;;;;11.48;100.00;98335.13;5068378;28;20519;-62
2023/10/21 01:30:45;;;;;;;9.07;4.75;;;;;;;11.46;100.00;98345.09;5094381;28;20032;-62
2023/10/21 01:33:10;;;;;;;10.73;4.30;;;;;;;11.47;100.00;98341.41;5096053;28;20437;-62
2023/10/21 01:35:35;;;;;;;4.40;3.70;;;;;;;11.50;100.00;98352.59;5095429;28;20433;-62
2023/10/21 01:38:01;;;;;;;6.78;5.25;;;;;;;11.48;100.00;98345.78;5080098;28;20016;-61
2023/10/21 01:40:27;;;;;;;13.07;5.75;;;;;;;11.49;100.00;98355.41;5095405;28;20027;-62
2023/10/21 01:42:52;;;;;;;4.75;3.42;;;;;;;11.52;100.00;98349.75;5089782;28;20024;-61
2023/10/21 01:45:18;;;;;;;7.40;4.28;;;;;;;11.55;100.00;98358.25;5075341;28;20058;-62
2023/10/21 01:47:43;;;;;;;6.57;3.55;;;;;;;11.55;100.00;98352.91;5069311;28;20023;-62
2023/10/21 01:50:09;;;;;;;5.97;3.55;;;;;;;11.57;100.00;98360.75;5094323;28;20020;-62
2023/10/21 01:52:36;;;;;;;8.20;4.03;;;;;;;11.58;100.00;98365.91;5101775;28;20737;-62
2023/10/21 01:55:03;;;;;;;10.98;5.93;;;;;;;11.52;100.00;98360.41;5077931;28;20119;-62
2023/10/21 01:57:29;;;;;;;12.93;5.18;;;;;;;11.54;100.00;98364.56;5060392;28;20024;-62
2023/10/21 01:59:55;;;;;;;4.68;3.97;;;;;;;11.58;100.00;98363.22;5097487;28;20081;-61
2023/10/21 02:02:20;;;;;;;4.05;3.65;;;;;;;11.62;100.00;98362.91;5096686;28;20360;-62
2023/10/21 02:04:46;;;;;;;6.22;4.35;;;;;;;11.62;100.00;98369.09;5077987;28;20035;-61
2023/10/21 02:07:11;;;;;;;9.68;6.10;;;;;;;11.51;100.00;98369.41;5075677;28;20053;-61
2023/10/21 02:09:37;;;;;;;10.45;5.57;;;;;;;11.55;100.00;98381.38;5077984;28;20036;-61
2023/10/21 02:12:02;;;;;;;5.35;3.90;;;;;;;11.61;100.00;98375.38;5074930;28;20021;-62
2023/10/21 02:14:28;;;;;;;9.48;4.25;;;;;;;11.60;100.00;98384.38;5076076;28;20099;-62
2023/10/21 02:16:54;;;;;;;7.40;3.58;;;;;;;11.60;100.00;98387.88;5073176;28;20405;-62
2023/10/21 02:19:20;;;;;;;7.03;4.25;;;;;;;11.58;100.00;98397.84;5074128;28;20028;-61
2023/10/21 02:21:47;;;;;;;11.52;5.32;;;;;;;11.54;100.00;98395.69;5056752;28;20071;-62
2023/10/21 02:24:12;;;;;;;6.93;4.28;;;;;;;11.61;100.00;98399.34;5072071;28;20020;-62
2023/10/21 02:26:37;;;;;;;9.48;5.68;;;;;;;11.55;100.00;98397.34;5070304;28;20019;-62
2023/10/21 02:29:03;;;;;;;12.70;5.93;;;;;;;11.51;100.00;98409.31;5070396;28;20471;-62
2023/10/21 02:31:31;;;;;;;9.38;6.28;;;;;;;11.55;100.00;98411.47;5069139;28;20048;-62
2023/10/21 02:33:57;;;;;;;11.30;5.70;;;;;;;11.49;100.00;98406.81;5068957;28;20016;-61
2023/10/21 02:36:24;;;;;;;5.22;3.83;;;;;;;11.55;100.00;98411.47;5061328;28;20021;-62
2023/10/21 02:38:56;;;;;;;12.90;3.90;;;;;;;11.55;100.00;98408.81;5061971;28;20013;-62
2023/10/21 02:41:24;;;;;;;5.95;4.50;;;;;;;11.53;100.00;98410.84;5071158;28;20131;-62
2023/10/21 02:43:50;;;;;;;8.18;3.67;;;;;;;11.57;100.00;98417.47;5068498;28;20020;-62
2023/10/21 02:46:15;;;;;;;11.77;6.55;;;;;;;11.51;100.00;98410.16;5070415;28;20052;-62
2023/10/21 02:48:43;;;;;;;4.00;3.63;;;;;;;11.56;100.00;98428.31;5069286;28;20079;-62
2023/10/21 02:51:17;;;;;;;9.75;7.03;;;;;;;11.49;100.00;98422.78;5068713;28;20027;-62
2023/10/21 02:53:44;;;;;;;9.95;6.10;;;;;;;11.43;100.00;98434.06;5066648;28;20013;-62
2023/10/21 02:56:13;;;;;;;5.63;3.47;;;;;;;11.50;100.00;98431.59;5062574;28;20020;-62
2023/10/21 02:58:39;;;;;;;4.47;3.95;;;;;;;11.50;100.00;98437.78;5068057;28;20036;-62
2023/10/21 03:01:14;;;;;;;11.48;7.22;;;;;;;11.43;100.00;98444.72;5071340;28;20108;-61
2023/10/21 03:03:44;;;;;;;6.90;4.18;;;;;;;11.46;100.00;98441.75;5072598;28;20053;-61
2023/10/21 03:06:10;;;;;;;15.75;4.45;;;;;;;11.43;100.00;98441.22;5071514;28;20497;-61
2023/10/21 03:08:39;;;;;;;10.38;4.13;;;;;;;11.49;100.00;98456.56;5082098;28;20033;-62
2023/10/21 03:11:06;;;;;;;11.65;6.95;;;;;;;11.45;100.00;98460.56;5070251;28;20030;-62
2023/10/21 03:13:32;;;;;;;10.23;6.50;;;;;;;11.46;100.00;98457.72;5071931;28;20026;-62
2023/10/21 03:15:58;;;;;;;11.63;4.18;;;;;;;11.49;100.00;98456.56;5091633;28;20068;-62
2023/10/21 03:18:24;;;;;;;13.80;7.05;;;;;;;11.42;100.00;98461.69;5081449;28;20111;-62
2023/10/21 03:20:50;;;;;;;9.68;4.35;;;;;;;11.47;100.00;98459.41;5089083;28;20053;-62
2023/10/21 03:23:16;;;;;;;11.90;7.07;;;;;;;11.47;100.00;98467.38;5069558;28;20456;-62
2023/10/21 03:25:41;;;;;;;11.75;4.22;;;;;;;11.45;100.00;98461.38;5090946;28;20111;-62
2023/10/21 03:28:06;;;;;;;9.40;4.82;;;;;;;11.45;100.00;98465.88;5075334;28;20081;-62
2023/10/21 03:30:32;;;;;;;8.32;3.78;;;;;;;11.44;100.00;98477.50;5075345;28;20035;-62
2023/10/21 03:32:57;;;;;;;10.27;5.78;;;;;;;11.35;100.00;98482.81;5073308;28;20056;-62
2023/10/21 03:35:25;;;;;;;5.10;3.80;;;;;;;11.39;100.00;98472.66;5074224;28;20483;-62
2023/10/21 03:37:50;;;;;;;4.03;3.63;;;;;;;11.35;100.00;98477.50;5093220;28;20035;-62
2023/10/21 03:40:16;;;;;;;5.03;3.70;;;;;;;11.38;100.00;98489.59;5071825;28;20012;-62
2023/10/21 03:42:42;;;;;;;5.07;3.70;;;;;;;11.36;100.00;98483.63;5083230;28;20051;-62
2023/10/21 03:45:07;;;;;;;5.05;4.13;;;;;;;11.36;100.00;98492.44;5090363;28;20140;-62
2023/10/21 03:47:33;;;;;;;6.40;3.40;;;;;;;11.37;100.00;98493.28;5091420;28;20150;-62
2023/10/21 03:49:59;;;;;;;5.97;3.60;;;;;;;11.36;100.00;98492.44;5087272;28;20027;-62
2023/10/21 03:52:25;;;;;;;9.38;4.40;;;;;;;11.40;100.00;98506.25;5089024;28;20016;-62
2023/10/21 03:54:50;;;;;;;5.97;4.10;;;;;;;11.41;100.00;98504.44;5078522;28;20390;-62
2023/10/21 03:57:15;;;;;;;6.93;5.65;;;;;;;11.37;100.00;98502.09;5081982;28;20074;-62
2023/10/21 03:59:41;;;;;;;9.95;3.60;;;;;;;11.44;100.00;98514.75;5076462;28;20036;-62
2023/10/21 04:02:07;;;;;;;11.35;6.35;;;;;;;11.47;100.00;98522.41;5084918;28;20387;-62
2023/10/21 04:04:32;;;;;;;5.47;3.63;;;;;;;11.46;100.00;98518.94;5057153;28;20119;-62
2023/10/21 04:06:59;;;;;;;5.43;3.47;;;;;;;11.48;100.00;98524.09;5081919;28;20123;-62
2023/10/21 04:09:26;;;;;;;8.25;3.85;;;;;;;11.51;100.00;98518.47;5096414;28;20028;-62
2023/10/21 04:11:55;;;;;;;8.32;3.80;;;;;;;11.48;100.00;98529.44;5072313;28;20074;-62
2023/10/21 04:14:20;;;;;;;5.63;3.38;;;;;;;11.52;100.00;98542.25;5073411;28;20020;-62
2023/10/21 04:16:49;;;;;;;5.30;3.80;;;;;;;11.53;100.00;98548.41;5091781;28;20027;-62
2023/10/21 04:19:15;;;;;;;7.38;3.88;;;;;;;11.56;100.00;98540.94;5072614;28;20024;-62
2023/10/21 04:21:43;;;;;;;9.13;3.75;;;;;;;11.59;100.00;98548.63;5090734;28;20485;-62
2023/10/21 04:24:08;;;;;;;7.28;3.78;;;;;;;11.58;100.00;98551.41;5090983;28;20490;-62
2023/10/21 04:26:36;;;;;;;8.05;5.47;;;;;;;11.56;100.00;98554.25;5092237;28;20020;-62
2023/10/21 04:29:02;;;;;;;8.48;5.43;;;;;;;11.56;100.00;98550.78;5073830;28;20027;-62
2023/10/21 04:31:37;;;;;;;8.63;3.85;;;;;;;11.64;100.00;98561.44;5074033;28;20039;-62
2023/10/21 04:34:03;;;;;;;11.52;4.50;;;;;;;11.64;100.00;98555.28;5091490;28;20016;-62
2023/10/21 04:36:28;;;;;;;7.78;3.92;;;;;;;11.64;100.00;98572.06;5090448;28;20031;-62
2023/10/21 04:38:54;;;;;;;9.15;4.28;;;;;;;11.65;100.00;98567.59;5091516;28;20028;-62
2023/10/21 04:41:19;;;;;;;11.52;4.63;;;;;;;11.64;100.00;98572.06;5086171;28;20036;-62
2023/10/21 04:43:45;;;;;;;11.30;4.28;;;;;;;11.65;100.00;98578.22;5069934;28;20024;-62
2023/10/21 04:46:13;;;;;;;8.60;3.97;;;;;;;11.63;100.00;98581.06;5083391;28;20025;-62
2023/10/21 04:48:38;;;;;;;5.47;3.83;;;;;;;11.60;100.00;98584.88;5091550;28;20027;-61
2023/10/21 04:51:04;;;;;;;11.07;4.43;;;;;;;11.62;100.00;98589.22;5087375;28;20487;-61
2023/10/21 04:53:30;;;;;;;10.73;3.90;;;;;;;11.62;100.00;98591.88;5078807;28;20035;-61
2023/10/21 04:55:55;;;;;;;7.82;4.30;;;;;;;11.58;100.00;98600.16;5080945;28;20043;-61
2023/10/21 04:58:21;;;;;;;9.85;3.90;;;;;;;11.59;100.00;98596.53;5085806;28;20024;-62
2023/10/21 05:00:46;;;;;;;7.80;5.35;;;;;;;11.52;100.00;98584.00;5087572;28;20051;-61
2023/10/21 05:03:11;;;;;;;9.82;4.65;;;;;;;11.55;100.00;98605.81;5090234;28;20407;-62
2023/10/21 05:05:39;;;;;;;11.23;4.57;;;;;;;11.54;100.00;98613.97;5073116;28;20031;-61
2023/10/21 05:08:05;;;;;;;8.45;3.80;;;;;;;11.51;100.00;98617.78;5091182;28;20044;-62
2023/10/21 05:10:30;;;;;;;13.23;6.57;;;;;;;11.42;100.00;98609.91;5090458;28;20027;-62
2023/10/21 05:12:55;;;;;;;13.70;6.70;;;;;;;11.33;100.00;98617.00;5091211;28;20432;-62
2023/10/21 05:15:23;;;;;;;13.32;6.50;;;;;;;11.20;100.00;98617.41;5073568;28;20031;-61
2023/10/21 05:17:49;;;;;;;7.85;4.15;;;;;;;11.32;100.00;98615.31;5079264;28;20044;-62
2023/10/21 05:20:14;;;;;;;13.70;4.28;;;;;;;11.36;100.00;98624.69;5081614;28;20025;-62
2023/10/21 05:22:39;;;;;;;8.75;4.20;;;;;;;11.30;100.00;98617.34;5088099;28;20032;-62
2023/10/21 05:25:06;;;;;;;8.70;3.60;;;;;;;11.36;100.00;98627.34;5090485;28;20047;-61
2023/10/21 05:27:32;;;;;;;5.15;4.00;;;;;;;11.37;100.00;98635.16;5064654;28;20475;-62
2023/10/21 05:29:58;;;;;;;11.93;7.35;;;;;;;11.38;100.00;98633.31;5072508;28;20028;-61
2023/10/21 05:32:23;;;;;;;10.45;7.15;;;;;;;11.34;100.00;98634.66;5090801;28;20411;-62
2023/10/21 05:34:51;;;;;;;11.27;7.45;;;;;;;11.34;100.00;98642.63;5098436;28;20580;-62
2023/10/21 05:37:16;;;;;;;13.27;8.32;;;;;;;11.43;100.00;98639.03;5072384;28;20032;-62
2023/10/21 05:39:42;;;;;;;5.55;3.95;;;;;;;11.48;100.00;98646.56;5088012;28;20023;-62
2023/10/21 05:42:09;;;;;;;11.73;4.20;;;;;;;11.51;100.00;98652.41;5077627;28;20532;-62
2023/10/21 05:44:37;;;;;;;6.57;3.58;;;;;;;11.56;100.00;98654.59;5057741;28;20031;-62
2023/10/21 05:47:05;;;;;;;6.07;3.60;;;;;;;11.60;100.00;98661.25;5069335;28;20032;-62
2023/10/21 05:49:30;;;;;;;6.95;4.57;;;;;;;11.66;100.00;98662.47;5087310;28;20668;-62
2023/10/21 05:51:58;;;;;;;5.25;4.00;;;;;;;11.67;100.00;98670.28;5092778;28;20134;-62
2023/10/21 05:54:26;;;;;;;8.43;7.50;;;;;;;11.71;100.00;98668.16;5076778;28;20390;-62
2023/10/21 05:56:51;;;;;;;5.18;3.90;;;;;;;11.74;100.00;98673.16;5095037;28;20047;-61
2023/10/21 05:59:17;;;;;;;7.88;3.78;;;;;;;11.76;100.00;98663.16;5094942;28;20479;-62
2023/10/21 06:01:42;;;;;;;9.15;3.85;;;;;;;11.79;100.00;98670.84;5076484;28;20020;-62
2023/10/21 06:04:07;;;;;;;6.28;3.72;;;;;;;11.84;100.00;98684.53;5094179;28;20101;-61
2023/10/21 06:06:33;;;;;;;14.98;8.10;;;;;;;11.82;100.00;98673.19;5092355;28;20077;-62
2023/10/21 06:08:58;;;;;;;5.13;3.67;;;;;;;11.90;100.00;98693.75;5075880;28;20032;-62
2023/10/21 06:11:24;;;;;;;7.30;4.43;;;;;;;11.94;100.00;98700.41;5094655;28;20371;-62
2023/10/21 06:13:50;;;;;;;7.55;3.78;;;;;;;11.95;100.00;98710.94;5094711;28;20024;-62
2023/10/21 06:16:15;;;;;;;13.55;6.78;;;;;;;11.97;100.00;98713.41;5094270;28;20471;-62
2023/10/21 06:18:40;;;;;;;12.35;7.28;;;;;;;11.97;100.00;98716.09;5093494;28;20089;-62
2023/10/21 06:21:06;;;;;;;11.68;3.67;;;;;;;12.00;100.00;98724.63;5093027;28;20028;-62
2023/10/21 06:23:31;;;;;;;9.55;4.05;;;;;;;11.96;100.00;98720.59;5074207;28;20532;-61
2023/10/21 06:25:57;;;;;;;11.75;7.22;;;;;;;12.03;100.00;98726.97;5075210;28;20111;-62
2023/10/21 06:28:22;;;;;;;11.68;3.92;;;;;;;12.07;100.00;98740.81;5075587;28;20092;-62
2023/10/21 06:30:48;;;;;;;7.03;3.75;;;;;;;12.08;100.00;98753.13;5093640;28;20059;-62
2023/10/21 06:33:13;;;;;;;8.70;3.78;;;;;;;12.05;100.00;98740.94;5092748;28;20544;-61
2023/10/21 06:35:39;;;;;;;6.45;3.63;;;;;;;12.12;100.00;98757.16;5074046;28;20028;-62
2023/10/21 06:38:08;;;;;;;8.00;3.90;;;;;;;12.15;100.00;98758.69;5092479;28;20024;-62
2023/10/21 06:40:33;;;;;;;9.10;6.50;;;;;;;12.16;100.00;98761.16;5075490;28;20475;-62
2023/10/21 06:43:02;;;;;;;13.48;7.20;;;;;;;12.17;100.00;98762.81;5093193;28;20020;-62
2023/10/21 06:45:27;;;;;;;5.47;3.43;;;;;;;12.23;100.00;98777.34;5094265;28;20036;-62
2023/10/21 06:47:54;;;;;;;6.70;3.85;;;;;;;12.25;100.00;98773.53;5092860;28;20023;-62
2023/10/21 06:50:22;;;;;;;5.63;3.30;;;;;;;12.23;100.00;98772.84;5075339;28;20106;-62
2023/10/21 06:52:47;;;;;;;8.52;4.28;;;;;;;12.31;100.00;98788.06;5075275;28;20044;-62
2023/10/21 06:55:13;;;;;;;10.73;6.30;;;;;;;12.30;100.00;98783.75;5074465;28;20446;-62
2023/10/21 06:57:39;;;;;;;7.47;4.47;;;;;;;12.34;100.00;98792.25;5093295;28;20102;-62
2023/10/21 07:00:05;;;;;;;9.30;6.35;;;;;;;12.31;100.00;98789.91;5075180;28;20115;-62
2023/10/21 07:02:30;;;;;;;4.47;3.25;;;;;;;12.36;100.00;98796.44;5092897;28;20020;-62
2023/10/21 07:04:56;;;;;;;12.93;6.57;;;;;;;12.32;100.00;98804.88;5091495;28;20063;-62
2023/10/21 07:07:22;;;;;;;4.43;3.17;;;;;;;12.36;100.00;98807.09;5075160;28;20048;-62
2023/10/21 07:09:48;;;;;;;7.45;3.22;;;;;;;12.39;100.00;98814.78;5093382;28;20024;-62
2023/10/21 07:12:13;;;;;;;8.60;6.00;;;;;;;12.38;100.00;98820.25;5075583;28;20024;-62
2023/10/21 07:14:41;;;;;;;10.13;5.97;;;;;;;12.37;100.00;98832.75;5093093;28;20102;-62
2023/10/21 07:17:07;;;;;;;9.20;5.57;;;;;;;12.36;100.00;98833.75;5093336;28;20016;-62
2023/10/21 07:19:32;;;;;;;3.75;3.30;;;;;;;12.38;100.00;98845.09;5092617;28;20028;-62
2023/10/21 07:21:58;;;;;;;7.28;5.63;;;;;;;12.33;100.00;98863.38;5074884;28;20031;-62
2023/10/21 07:24:23;;;;;;;3.75;2.88;;;;;;;12.40;100.00;98871.59;5074953;28;20102;-62
2023/10/21 07:26:49;;;;;;;3.72;2.47;;;;;;;12.31;100.00;98884.03;5074925;28;20028;-62
2023/10/21 07:29:14;;;;;;;2.50;2.30;;;;;;;12.25;100.00;98892.66;5074747;28;20162;-62
2023/10/21 07:31:41;;;;;;;4.95;4.45;;;;;;;12.14;100.00;98903.56;5074897;28;20020;-62
2023/10/21 07:34:07;;;;;;;4.28;3.97;;;;;;;12.10;100.00;98903.03;5093017;28;20463;-62
2023/10/21 07:36:34;;;;;;;5.53;4.18;;;;;;;12.11;100.00;98923.34;5074351;28;20030;-62
2023/10/21 07:38:59;;;;;;;4.97;4.45;;;;;;;12.10;100.00;98927.00;5073937;28;20016;-62
2023/10/21 07:41:27;;;;;;;3.63;2.00;;;;;;;12.19;100.00;98930.59;5073608;28;20042;-61
2023/10/21 07:43:52;;;;;;;5.43;2.10;;;;;;;12.19;100.00;98933.25;5091920;28;20028;-61
2023/10/21 07:46:20;;;;;;;3.17;2.00;;;;;;;12.18;100.00;98948.41;5092821;28;20016;-62
2023/10/21 07:48:48;;;;;;;3.10;2.90;;;;;;;12.16;100.00;98955.72;5092699;28;20084;-61
2023/10/21 07:51:13;;;;;;;2.90;2.20;;;;;;;12.20;100.00;98956.22;5092487;28;20027;-62
2023/10/21 07:53:38;;;;;;;4.07;3.38;;;;;;;12.14;100.00;98959.50;5074351;28;20081;-61
2023/10/21 07:56:04;;;;;;;2.05;1.95;;;;;;;12.19;100.00;98971.41;5092694;28;20035;-61
2023/10/21 07:58:30;;;;;;;2.38;2.17;;;;;;;12.21;100.00;98979.25;5092776;28;20044;-61
2023/10/21 08:00:55;;;;;;;3.50;3.20;;;;;;;12.13;100.00;98985.34;5092385;28;20030;-62
2023/10/21 08:03:20;;;;;;;2.28;2.13;;;;;;;12.20;100.00;98988.22;5092528;28;20334;-61
2023/10/21 08:05:46;;;;;;;3.63;1.92;;;;;;;12.27;100.00;98992.78;5073830;28;20383;-61
2023/10/21 08:08:13;;;;;;;2.22;2.13;;;;;;;12.26;100.00;98987.59;5092298;28;20044;-61
2023/10/21 08:10:38;;;;;;;4.60;3.60;;;;;;;12.25;100.00;98996.59;5092437;28;20104;-61
2023/10/21 08:13:04;;;;;;;3.40;3.10;;;;;;;12.32;100.00;98992.31;5092446;28;20098;-62
2023/10/21 08:15:29;;;;;;;2.28;2.08;;;;;;;12.41;100.00;99002.09;5073558;28;20115;-61
2023/10/21 08:17:56;;;;;;;3.63;2.75;;;;;;;12.44;100.00;99003.56;5073531;28;20115;-62
2023/10/21 08:20:21;;;;;;;3.88;2.60;;;;;;;12.44;100.00;98998.25;5091558;28;20024;-62
2023/10/21 08:22:46;;;;;;;3.10;2.80;;;;;;;12.50;100.00;99003.81;5092052;28;20081;-62
2023/10/21 08:25:13;;;;;;;3.10;1.92;;;;;;;12.63;100.00;99005.25;5091822;28;20107;-62
2023/10/21 08:27:39;;;;;;;2.22;2.10;;;;;;;12.70;100.00;99016.94;5092177;28;20076;-62
2023/10/21 08:30:06;;;;;;;2.15;1.90;;;;;;;12.77;100.00;99019.84;5091848;28;20476;-62
2023/10/21 08:32:31;;;;;;;3.53;2.90;;;;;;;12.77;100.00;99020.69;5091938;28;20016;-62
2023/10/21 08:34:57;;;;;;;2.10;1.88;;;;;;;12.88;100.00;99017.78;5091338;28;20095;-62
2023/10/21 08:37:22;;;;;;;4.28;2.70;;;;;;;12.81;100.00;99029.22;5074062;28;20031;-62
2023/10/21 08:39:50;;;;;;;2.17;1.90;;;;;;;12.91;100.00;99030.78;5073629;28;20020;-62
2023/10/21 08:42:17;;;;;;;2.90;2.70;;;;;;;12.82;100.00;99025.53;5073832;28;20031;-62
2023/10/21 08:44:46;;;;;;;2.00;1.73;;;;;;;12.90;100.00;99042.44;5073776;28;20024;-62
2023/10/21 08:47:13;;;;;;;1.52;1.42;;;;;;;12.96;100.00;99049.00;5073384;28;20024;-62
2023/10/21 08:49:45;;;;;;;3.15;2.53;;;;;;;12.83;100.00;99059.25;5073325;28;20081;-62
2023/10/21 08:52:13;;;;;;;1.65;1.55;;;;;;;12.93;100.00;99046.63;5073928;28;20024;-62
2023/10/21 08:54:42;;;;;;;3.33;2.88;;;;;;;12.87;100.00;99058.75;5073456;28;20040;-62
2023/10/21 08:57:10;;;;;;;5.53;2.80;;;;;;;12.95;100.00;99061.50;5073652;28;20051;-62
2023/10/21 08:59:36;;;;;;;3.28;2.97;;;;;;;13.03;100.00;99058.06;5091554;28;20089;-62
2023/10/21 09:02:02;;;;;;;3.55;2.83;;;;;;;13.01;100.00;99064.53;5073472;28;20028;-62
2023/10/21 09:04:30;;;;;;;4.78;3.15;;;;;;;13.00;100.00;99065.53;5091770;28;20020;-62
2023/10/21 09:06:59;;;;;;;3.72;2.08;;;;;;;13.09;100.00;99073.44;5091034;28;20131;-62
2023/10/21 09:09:28;;;;;;;3.22;2.13;;;;;;;13.02;100.00;99074.22;5091748;28;20078;-62
2023/10/21 09:12:14;;;;;;;6.63;3.20;;;;;;;13.00;100.00;99090.41;5091399;28;20050;-62
2023/10/21 09:14:56;;;;;;;3.38;2.80;;;;;;;13.02;100.00;99092.91;5091273;28;20017;-62
2023/10/21 09:17:35;;;;;;;4.68;3.00;;;;;;;12.98;100.00;99092.38;5073217;28;20161;-62
2023/10/21 09:20:07;;;;;;;6.32;3.17;;;;;;;12.91;100.00;99112.66;5091089;28;20028;-62
2023/10/21 09:22:34;;;;;;;4.50;2.65;;;;;;;12.97;100.00;99104.06;5091513;28;20157;-62
2023/10/21 09:25:20;;;;;;;3.90;1.90;;;;;;;13.09;100.00;99110.81;5091362;28;20024;-62
2023/10/21 09:27:53;;;;;;;4.32;1.92;;;;;;;13.10;100.00;99099.13;5065261;28;20024;-62
2023/10/21 09:30:20;;;;;;;5.75;3.08;;;;;;;13.14;100.00;99113.81;5088299;28;20395;-62
2023/10/21 09:32:46;;;;;;;4.18;2.85;;;;;;;13.18;100.00;99122.38;5085358;28;20081;-62
2023/10/21 09:35:30;;;;;;;6.47;2.72;;;;;;;13.31;100.00;99116.66;5094425;28;20051;-62
2023/10/21 09:37:56;;;;;;;5.95;2.83;;;;;;;13.30;99.55;99112.31;5078872;28;20035;-62
2023/10/21 09:40:24;;;;;;;5.07;3.10;;;;;;;13.33;99.55;99120.00;5082622;28;20038;-62
2023/10/21 09:42:52;;;;;;;6.93;1.92;;;;;;;13.43;100.00;99126.06;5076902;28;20085;-62
2023/10/21 09:45:18;;;;;;;5.82;3.42;;;;;;;13.38;98.37;99126.56;5091799;28;20027;-62
2023/10/21 09:47:45;;;;;;;4.55;2.83;;;;;;;13.42;97.99;99129.75;5073963;28;20398;-62
2023/10/21 09:50:13;;;;;;;5.88;2.80;;;;;;;13.45;95.98;99126.75;5075567;28;20028;-62
2023/10/21 09:53:11;;;;;;;4.88;2.90;;;;;;;13.50;95.43;99139.63;5076440;28;20387;-62
2023/10/21 09:55:39;;;;;;;4.00;2.85;;;;;;;13.56;95.15;99142.53;5076437;28;20042;-62
2023/10/21 09:58:07;;;;;;;5.88;2.80;;;;;;;13.60;93.59;99148.38;5083410;28;20434;-62
2023/10/21 10:00:35;;;;;;;4.05;2.60;;;;;;;13.62;94.21;99157.09;5068673;28;20056;-62
2023/10/21 10:03:01;;;;;;;8.00;3.63;;;;;;;13.69;92.89;99152.78;5074907;28;20050;-62
2023/10/21 10:05:27;;;;;;;8.43;2.00;;;;;;;13.87;94.66;99158.03;5059638;28;20101;-62
2023/10/21 10:07:53;;;;;;;5.60;2.95;;;;;;;13.86;92.48;99165.22;5076512;28;20521;-62
2023/10/21 10:10:21;;;;;;;2.10;1.67;;;;;;;13.92;90.56;99133.53;5094644;28;20042;-62
2023/10/21 10:13:07;;;;;;;3.63;1.90;;;;;;;14.13;93.28;99154.50;5076509;28;20020;-62
2023/10/21 10:15:39;;;;;;;5.38;2.90;;;;;;;14.15;88.82;99161.34;5094046;28;20107;-62
2023/10/21 10:18:08;;;;;;;5.78;2.97;;;;;;;14.23;87.92;99172.06;5094497;28;20059;-62
2023/10/21 10:20:34;;;;;;;6.55;2.80;;;;;;;14.39;87.71;99151.75;5093966;28;20028;-62
2023/10/21 10:23:02;;;;;;;8.95;2.72;;;;;;;14.59;86.25;99168.34;5076320;28;20032;-62
2023/10/21 10:25:32;;;;;;;6.88;2.90;;;;;;;14.86;84.53;99168.06;5094237;28;20020;-62
2023/10/21 10:28:07;;;;;;;4.18;2.50;;;;;;;15.16;85.18;99177.28;5094063;28;20063;-63
2023/10/21 10:30:33;;;;;;;11.75;3.45;;;;;;;15.51;81.98;99171.75;5076037;28;20027;-62
2023/10/21 10:33:07;;;;;;;4.22;2.58;;;;;;;15.79;79.98;99177.56;5094488;28;20433;-62
2023/10/21 10:35:43;;;;;;;5.80;2.53;;;;;;;16.04;77.30;99165.78;5109434;28;20032;-62
2023/10/21 10:38:27;;;;;;;8.95;2.55;;;;;;;16.49;77.79;99174.94;5059569;28;20111;-62
2023/10/21 10:40:57;;;;;;;4.85;2.60;;;;;;;16.66;74.48;99178.38;5094298;28;20031;-62
2023/10/21 10:43:23;;;;;;;6.45;2.53;;;;;;;16.72;74.05;99176.84;5094034;28;20107;-63
2023/10/21 10:45:49;;;;;;;6.72;2.80;;;;;;;16.64;70.88;99184.94;5093700;28;20031;-63
2023/10/21 10:48:16;;;;;;;4.75;2.40;;;;;;;16.51;70.51;99188.19;5094248;28;20394;-63
2023/10/21 10:50:42;;;;;;;4.07;2.55;;;;;;;16.56;71.29;99193.88;5093618;28;20043;-62
2023/10/21 10:53:18;;;;;;;7.47;2.42;;;;;;;16.68;70.12;99189.78;5094007;28;20494;-63
2023/10/21 10:55:47;;;;;;;6.47;2.83;;;;;;;16.74;71.28;99181.03;5075538;28;20035;-63
2023/10/21 10:58:13;;;;;;;6.22;2.63;;;;;;;16.95;67.31;99196.50;5075455;28;20054;-62
2023/10/21 11:00:41;;;;;;;7.05;3.00;;;;;;;17.03;68.89;99192.94;5093920;28;20387;-62
2023/10/21 11:03:09;;;;;;;7.22;3.03;;;;;;;17.05;67.94;99200.81;5093867;28;20024;-62
2023/10/21 11:05:37;;;;;;;8.15;2.80;;;;;;;17.05;67.24;99187.38;5093022;28;20479;-62
2023/10/21 11:08:07;;;;;;;5.82;2.28;;;;;;;17.22;70.56;99197.00;5075217;28;20044;-63
2023/10/21 11:10:33;;;;;;;5.18;2.55;;;;;;;16.82;65.46;99196.25;5059278;28;20107;-63
2023/10/21 11:12:58;;;;;;;8.73;2.90;;;;;;;16.50;67.18;99208.84;5082216;28;20020;-62
2023/10/21 11:15:24;;;;;;;7.15;3.00;;;;;;;16.21;67.73;99214.84;5092789;28;20032;-62
2023/10/21 11:17:51;;;;;;;9.55;3.30;;;;;;;16.03;69.82;99223.09;5092434;28;20482;-62
2023/10/21 11:20:19;;;;;;;6.32;3.05;;;;;;;16.21;69.72;99214.84;5093342;28;20172;-62
2023/10/21 11:22:44;;;;;;;5.80;3.00;;;;;;;16.42;68.71;99216.09;5073973;28;20088;-62